West Palm Beach, Florida
Current Conditions -  °F | °C
As of 2:24 PM on Tuesday 21 Oct 2014 (Local Time) from KPBI Reporting Station
Thunderstorm Thunderstorm  
Wind Chill: 73°   Ceiling: 1500
Heat Index: 73°   Visibility: 5mi
Dew Point: 72°   Wind: 13mph
Humidity: 96%   Direction: 50°NE
Pressure: 29.92"   Gusts: NA
Location:  26.71°N, 80.05°W
Report Text: KPBI 211824Z 05011KT 5SM -TSRA BR SCT009 BKN015 OVC020CB 23/22 A2992 RMK AO2 OCNL LTGIC OHD-ALQDS TS OHD-ALQDS MOV NE P0009 T02280222
Loading
Personal Weather Stations






























Interactive Weather Map
Tropical Storm Tracking
New forecast layout! Learn more

10-Day Weather Forecast

Advertisements
Track Severe Weather on mobile